createdAt,value
2018-04-10T00:00:20.530Z,63.5
2018-04-10T00:01:22.344Z,63.9
2018-04-10T00:02:24.224Z,64.2
2018-04-10T00:03:25.947Z,63.9
2018-04-10T00:04:27.731Z,64.2
2018-04-10T00:05:29.409Z,64.9
2018-04-10T00:06:31.317Z,65.4
2018-04-10T00:07:32.956Z,66.1
2018-04-10T00:08:34.769Z,66.8
2018-04-10T00:09:36.809Z,67.0
2018-04-10T00:10:38.498Z,67.5
2018-04-10T00:11:40.250Z,68.3
2018-04-10T00:12:42.027Z,68.3
2018-04-10T00:13:43.753Z,68.8
2018-04-10T00:14:45.741Z,68.8
2018-04-10T00:15:47.450Z,69.5
2018-04-10T00:16:49.250Z,69.3
2018-04-10T00:17:50.967Z,69.1
2018-04-10T00:18:52.933Z,68.7
2018-04-10T00:19:54.755Z,68.6
2018-04-10T00:20:56.641Z,69.1
2018-04-10T00:21:58.449Z,68.6
2018-04-10T00:23:00.248Z,68.6
2018-04-10T00:24:02.181Z,68.6
2018-04-10T00:25:04.001Z,68.7
2018-04-10T00:26:05.751Z,67.9
2018-04-10T00:27:07.618Z,67.9
2018-04-10T00:28:09.271Z,68.5
2018-04-10T00:29:11.831Z,67.4
2018-04-10T00:30:13.601Z,65.8
2018-04-10T00:31:15.423Z,66.7
2018-04-10T00:32:17.156Z,67.5
2018-04-10T00:33:19.052Z,67.5
2018-04-10T00:34:20.697Z,68.4
2018-04-10T00:35:22.473Z,69.2
2018-04-10T00:36:24.359Z,69.4
2018-04-10T00:37:26.262Z,70.0
2018-04-10T00:38:28.017Z,69.8
2018-04-10T00:39:30.009Z,70.5
2018-04-10T00:40:32.040Z,71.3
2018-04-10T00:41:33.780Z,71.7
2018-04-10T00:42:35.468Z,72.6
2018-04-10T00:43:37.372Z,72.5
2018-04-10T00:44:39.193Z,73.1
2018-04-10T00:45:41.181Z,72.8
2018-04-10T00:46:42.958Z,72.6
2018-04-10T00:47:44.646Z,73.4
2018-04-10T00:48:46.346Z,73.0
2018-04-10T00:49:48.126Z,72.9
2018-04-10T00:50:50.063Z,72.8
2018-04-10T00:51:51.852Z,72.5
2018-04-10T00:52:53.756Z,72.7
2018-04-10T00:53:55.641Z,72.5
2018-04-10T00:54:57.524Z,73.0
2018-04-10T00:55:59.276Z,72.6
2018-04-10T00:57:01.215Z,72.4
2018-04-10T00:58:02.937Z,72.4
2018-04-10T00:59:04.670Z,72.6
2018-04-10T01:00:06.397Z,72.0
2018-04-10T01:01:08.216Z,72.7
2018-04-10T01:02:10.004Z,72.4
2018-04-10T01:03:11.967Z,72.5
2018-04-10T01:04:13.829Z,72.6
2018-04-10T01:05:15.683Z,71.4
2018-04-10T01:06:17.471Z,72.5
2018-04-10T01:07:19.276Z,72.8
2018-04-10T01:08:20.928Z,72.5
2018-04-10T01:09:22.743Z,71.4
2018-04-10T01:10:24.527Z,72.7
2018-04-10T01:11:26.212Z,72.6
2018-04-10T01:12:28.094Z,72.5
2018-04-10T01:13:29.852Z,72.0
2018-04-10T01:14:31.778Z,73.2
2018-04-10T01:15:33.648Z,73.1
2018-04-10T01:16:35.472Z,73.4
2018-04-10T01:17:37.377Z,73.2
2018-04-10T01:18:39.180Z,73.1
2018-04-10T01:19:40.971Z,73.0
2018-04-10T01:20:42.766Z,72.8
2018-04-10T01:21:44.586Z,72.5
2018-04-10T01:22:46.372Z,73.2
2018-04-10T01:23:48.154Z,73.0
2018-04-10T01:24:49.991Z,73.1
2018-04-10T01:25:51.735Z,73.2
2018-04-10T01:26:53.507Z,73.1
2018-04-10T01:27:55.354Z,73.5
2018-04-10T01:28:57.128Z,72.6
2018-04-10T01:29:59.171Z,72.8
2018-04-10T01:31:00.907Z,72.6
2018-04-10T01:32:02.853Z,72.4
2018-04-10T01:33:04.780Z,72.6
2018-04-10T01:34:06.654Z,72.5
2018-04-10T01:35:08.377Z,72.3
2018-04-10T01:36:10.240Z,71.3
2018-04-10T01:37:12.116Z,72.1
2018-04-10T01:38:13.924Z,72.8
2018-04-10T01:39:15.708Z,72.5
2018-04-10T01:40:17.515Z,72.5
2018-04-10T01:41:19.235Z,73.2
2018-04-10T01:42:20.966Z,73.5
2018-04-10T01:43:22.684Z,73.4
2018-04-10T01:44:24.547Z,73.6
2018-04-10T01:45:26.409Z,73.8
2018-04-10T01:46:28.144Z,74.9
2018-04-10T01:47:30.070Z,74.9
2018-04-10T01:48:31.823Z,74.7
2018-04-10T01:49:33.542Z,74.8
2018-04-10T01:50:35.344Z,75.0
2018-04-10T01:51:37.089Z,75.2
2018-04-10T01:52:38.914Z,74.4
2018-04-10T01:53:40.683Z,73.9
2018-04-10T01:54:42.429Z,74.0
2018-04-10T01:55:44.167Z,74.1
2018-04-10T01:56:46.056Z,73.7
2018-04-10T01:57:47.718Z,72.2
2018-04-10T01:58:49.731Z,73.5
2018-04-10T01:59:51.471Z,72.6
2018-04-10T02:00:53.232Z,73.1
2018-04-10T02:01:55.080Z,73.2
2018-04-10T02:02:57.027Z,73.7
2018-04-10T02:03:58.767Z,73.6
2018-04-10T02:05:00.542Z,73.1
2018-04-10T02:06:02.263Z,72.5
2018-04-10T02:07:04.048Z,72.6
2018-04-10T02:08:05.819Z,72.8
2018-04-10T02:09:07.718Z,73.6
2018-04-10T02:10:09.590Z,73.2
2018-04-10T02:11:11.394Z,73.9
2018-04-10T02:12:13.351Z,74.7
2018-04-10T02:13:15.202Z,74.7
2018-04-10T02:14:17.007Z,74.9
2018-04-10T02:15:18.964Z,76.1
2018-04-10T02:16:20.878Z,76.0
2018-04-10T02:17:22.585Z,76.0
2018-04-10T02:18:24.394Z,76.6
2018-04-10T02:19:26.295Z,76.8
2018-04-10T02:20:28.180Z,76.8
2018-04-10T02:21:30.032Z,76.7
2018-04-10T02:22:31.811Z,76.5
2018-04-10T02:23:33.582Z,77.1
2018-04-10T02:24:35.467Z,76.9
2018-04-10T02:25:37.209Z,76.8
2018-04-10T02:26:39.091Z,76.9
2018-04-10T02:27:40.891Z,75.9
2018-04-10T02:28:42.641Z,76.4
2018-04-10T02:29:44.501Z,76.9
2018-04-10T02:30:46.291Z,77.3
2018-04-10T02:31:48.103Z,77.4
2018-04-10T02:32:50.026Z,77.1
2018-04-10T02:33:51.798Z,77.2
2018-04-10T02:34:53.571Z,77.3
2018-04-10T02:35:55.457Z,77.6
2018-04-10T02:36:57.180Z,78.1
2018-04-10T02:37:59.216Z,78.0
2018-04-10T02:39:00.997Z,78.0
2018-04-10T02:40:02.727Z,77.9
2018-04-10T02:41:04.489Z,78.6
2018-04-10T02:42:06.248Z,78.4
2018-04-10T02:43:08.108Z,79.2
2018-04-10T02:44:09.931Z,79.2
2018-04-10T02:45:11.700Z,79.2
2018-04-10T02:46:13.566Z,80.2
2018-04-10T02:47:15.343Z,80.2
2018-04-10T02:48:17.118Z,79.6
2018-04-10T02:49:19.013Z,78.3
2018-04-10T02:50:21.053Z,77.2
2018-04-10T02:51:22.872Z,77.5
2018-04-10T02:52:24.813Z,77.0
2018-04-10T02:53:26.563Z,76.5
2018-04-10T02:54:28.486Z,76.4
2018-04-10T02:55:30.422Z,76.2
2018-04-10T02:56:32.525Z,75.4
2018-04-10T02:57:34.380Z,75.3
2018-04-10T02:58:36.296Z,75.4
2018-04-10T02:59:38.112Z,75.0
2018-04-10T03:00:39.969Z,74.0
2018-04-10T03:01:41.774Z,73.6
2018-04-10T03:02:43.552Z,73.9
2018-04-10T03:03:45.345Z,73.9
2018-04-10T03:04:47.086Z,73.5
2018-04-10T03:05:49.019Z,73.9
2018-04-10T03:06:50.764Z,73.9
2018-04-10T03:07:52.614Z,73.9
2018-04-10T03:08:54.426Z,73.6
2018-04-10T03:09:56.169Z,73.6
2018-04-10T03:10:57.871Z,73.7
2018-04-10T03:11:59.580Z,73.8
2018-04-10T03:13:01.464Z,73.4
2018-04-10T03:14:03.238Z,74.0
2018-04-10T03:15:04.959Z,74.0
2018-04-10T03:16:06.631Z,73.6
2018-04-10T03:17:08.340Z,74.0
2018-04-10T03:18:10.082Z,73.7
2018-04-10T03:19:11.840Z,74.1
2018-04-10T03:20:13.716Z,74.0
2018-04-10T03:21:15.471Z,73.9
2018-04-10T03:22:17.198Z,73.6
2018-04-10T03:23:18.915Z,73.9
2018-04-10T03:24:20.626Z,74.0
2018-04-10T03:25:22.330Z,73.9
2018-04-10T03:26:24.122Z,74.6
2018-04-10T03:27:25.824Z,74.9
2018-04-10T03:28:27.704Z,76.3
2018-04-10T03:29:29.424Z,76.7
2018-04-10T03:30:31.185Z,77.2
2018-04-10T03:31:32.976Z,77.3
2018-04-10T03:32:34.775Z,77.5
2018-04-10T03:33:36.624Z,77.6
2018-04-10T03:34:38.374Z,78.0
2018-04-10T03:35:40.108Z,77.7
2018-04-10T03:36:42.004Z,78.4
2018-04-10T03:37:43.745Z,77.9
2018-04-10T03:38:45.538Z,77.3
2018-04-10T03:39:47.248Z,77.4
2018-04-10T03:40:49.116Z,76.7
2018-04-10T03:41:50.847Z,77.4
2018-04-10T03:42:52.709Z,77.0
2018-04-10T03:43:54.581Z,76.9
2018-04-10T03:44:56.371Z,77.1
2018-04-10T03:45:58.174Z,76.3
2018-04-10T03:47:00.146Z,76.4
2018-04-10T03:48:01.973Z,76.2
2018-04-10T03:49:03.850Z,76.1
2018-04-10T03:50:05.682Z,75.8
2018-04-10T03:51:07.487Z,76.1
2018-04-10T03:52:09.211Z,75.8
2018-04-10T03:53:11.749Z,76.9
2018-04-10T03:54:13.595Z,77.5
2018-04-10T03:55:15.451Z,77.6
2018-04-10T03:56:17.356Z,77.4
2018-04-10T03:57:19.392Z,77.8
2018-04-10T03:58:21.315Z,77.2
2018-04-10T03:59:23.066Z,77.4
2018-04-10T04:00:24.825Z,77.5
2018-04-10T04:01:26.781Z,77.8
2018-04-10T04:02:28.522Z,77.8
2018-04-10T04:03:30.301Z,78.4
2018-04-10T04:04:32.102Z,78.2
2018-04-10T04:05:34.032Z,78.9
2018-04-10T04:06:35.851Z,79.3
2018-04-10T04:07:37.746Z,79.7
2018-04-10T04:08:39.554Z,79.3
2018-04-10T04:09:41.360Z,79.4
2018-04-10T04:10:43.117Z,79.5
2018-04-10T04:11:44.883Z,79.4
2018-04-10T04:12:46.720Z,79.3
2018-04-10T04:13:48.550Z,79.3
2018-04-10T04:14:50.297Z,79.6
2018-04-10T04:15:52.036Z,79.8
2018-04-10T04:16:53.961Z,79.8
2018-04-10T04:17:55.773Z,80.0
2018-04-10T04:18:57.603Z,80.8
2018-04-10T04:19:59.402Z,80.4
2018-04-10T04:21:01.019Z,80.9
2018-04-10T04:22:02.788Z,81.0
2018-04-10T04:23:04.532Z,81.3
2018-04-10T04:24:06.286Z,81.2
2018-04-10T04:25:08.019Z,81.0
2018-04-10T04:26:09.713Z,80.8
2018-04-10T04:27:11.525Z,81.3
2018-04-10T04:28:13.278Z,80.9
2018-04-10T04:29:15.170Z,80.8
2018-04-10T04:30:16.949Z,81.2
2018-04-10T04:31:18.812Z,81.2
2018-04-10T04:32:20.514Z,81.3
2018-04-10T04:33:22.314Z,80.4
2018-04-10T04:34:24.125Z,80.6
2018-04-10T04:35:25.885Z,80.5
2018-04-10T04:36:27.788Z,80.9
2018-04-10T04:37:29.543Z,81.0
2018-04-10T04:38:31.272Z,80.5
2018-04-10T04:39:33.184Z,80.4
2018-04-10T04:40:34.945Z,80.4
2018-04-10T04:41:36.818Z,80.6
2018-04-10T04:42:38.641Z,80.4
2018-04-10T04:43:40.332Z,80.9
2018-04-10T04:44:42.082Z,80.9
2018-04-10T04:45:43.993Z,80.4
2018-04-10T04:46:45.803Z,81.3
2018-04-10T04:47:47.697Z,81.0
2018-04-10T04:48:49.484Z,81.4
2018-04-10T04:49:51.269Z,81.1
2018-04-10T04:50:53.129Z,80.8
2018-04-10T04:51:54.922Z,81.5
2018-04-10T04:52:56.699Z,81.2
2018-04-10T04:53:58.678Z,81.3
2018-04-10T04:55:00.469Z,81.5
2018-04-10T04:56:02.216Z,81.5
2018-04-10T04:57:03.920Z,81.8
2018-04-10T04:58:05.688Z,82.0
2018-04-10T04:59:07.616Z,81.7
2018-04-10T05:00:09.514Z,82.5
2018-04-10T05:01:11.637Z,82.3
2018-04-10T05:02:13.559Z,82.7
2018-04-10T05:03:15.459Z,82.8
2018-04-10T05:04:17.404Z,83.0
2018-04-10T05:05:19.408Z,83.0
2018-04-10T05:06:21.228Z,82.8
2018-04-10T05:07:23.090Z,83.1
2018-04-10T05:08:24.951Z,83.0
2018-04-10T05:09:26.792Z,83.6
2018-04-10T05:10:28.578Z,83.7
2018-04-10T05:11:30.439Z,83.3
2018-04-10T05:12:32.251Z,83.5
2018-04-10T05:13:33.977Z,83.6
2018-04-10T05:14:35.935Z,83.6
2018-04-10T05:15:37.816Z,83.1
2018-04-10T05:16:39.683Z,83.2
2018-04-10T05:17:41.473Z,82.5
2018-04-10T05:18:43.501Z,82.7
2018-04-10T05:19:45.352Z,82.4
2018-04-10T05:20:47.138Z,82.9
2018-04-10T05:21:48.897Z,82.6
2018-04-10T05:22:50.708Z,83.1
2018-04-10T05:23:52.576Z,83.1
2018-04-10T05:24:54.514Z,83.0
2018-04-10T05:25:56.404Z,83.1
2018-04-10T05:26:58.242Z,83.2
2018-04-10T05:27:59.975Z,82.8
2018-04-10T05:29:01.643Z,83.0
2018-04-10T05:30:03.487Z,83.3
2018-04-10T05:31:05.329Z,83.4
2018-04-10T05:32:07.006Z,83.3
2018-04-10T05:33:08.815Z,83.1
2018-04-10T05:34:10.622Z,83.0
2018-04-10T05:35:12.366Z,82.7
2018-04-10T05:36:14.105Z,82.5
2018-04-10T05:37:15.892Z,82.5
2018-04-10T05:38:17.736Z,82.2
2018-04-10T05:39:19.491Z,82.3
2018-04-10T05:40:21.269Z,81.7
2018-04-10T05:41:23.067Z,81.4
2018-04-10T05:42:24.897Z,81.3
2018-04-10T05:43:26.643Z,81.0
2018-04-10T05:44:28.330Z,81.0
2018-04-10T05:45:30.024Z,80.8
2018-04-10T05:46:31.853Z,80.4
2018-04-10T05:47:33.602Z,80.4
2018-04-10T05:48:35.302Z,79.9
2018-04-10T05:49:37.007Z,80.3
2018-04-10T05:50:38.752Z,79.4
2018-04-10T05:51:40.444Z,77.9
2018-04-10T05:52:42.142Z,77.8
2018-04-10T05:53:43.887Z,77.2
2018-04-10T05:54:45.565Z,76.8
2018-04-10T05:55:47.322Z,76.5
2018-04-10T05:56:49.128Z,76.1
2018-04-10T05:57:50.832Z,75.6
2018-04-10T05:58:52.556Z,75.0
2018-04-10T05:59:54.343Z,75.4
2018-04-10T06:00:56.103Z,74.6
2018-04-10T06:01:57.845Z,73.3
2018-04-10T06:02:59.644Z,73.3
2018-04-10T06:04:01.569Z,72.1
2018-04-10T06:05:03.336Z,72.0
2018-04-10T06:06:05.044Z,70.9
2018-04-10T06:07:06.903Z,70.0
2018-04-10T06:08:08.770Z,70.1
2018-04-10T06:09:10.605Z,70.1
2018-04-10T06:10:12.480Z,69.7
2018-04-10T06:11:14.276Z,69.3
2018-04-10T06:12:16.011Z,69.2
2018-04-10T06:13:18.013Z,68.8
2018-04-10T06:14:19.716Z,68.6
2018-04-10T06:15:21.484Z,67.3
2018-04-10T06:16:23.203Z,66.6
2018-04-10T06:17:24.949Z,67.2
2018-04-10T06:18:26.609Z,67.1
2018-04-10T06:19:28.327Z,66.1
2018-04-10T06:20:30.061Z,65.8
2018-04-10T06:21:31.771Z,65.1
2018-04-10T06:22:33.603Z,65.1
2018-04-10T06:23:35.374Z,65.4
2018-04-10T06:24:37.623Z,65.1
2018-04-10T06:25:38.763Z,65.1
2018-04-10T06:26:40.456Z,64.8
2018-04-10T06:27:42.210Z,64.5
2018-04-10T06:28:44.030Z,63.5
2018-04-10T06:29:45.786Z,63.6
2018-04-10T06:30:47.524Z,64.1
2018-04-10T06:31:49.266Z,63.6
2018-04-10T06:32:50.987Z,63.7
2018-04-10T06:33:52.759Z,64.0
2018-04-10T06:34:54.476Z,63.9
2018-04-10T06:35:56.184Z,63.3
2018-04-10T06:36:58.013Z,63.5
2018-04-10T06:37:59.796Z,62.4
2018-04-10T06:39:01.477Z,62.1
2018-04-10T06:40:03.250Z,61.9
2018-04-10T06:41:04.981Z,62.4
2018-04-10T06:42:06.778Z,62.4
2018-04-10T06:43:08.591Z,62.0
2018-04-10T06:44:10.332Z,62.9
2018-04-10T06:45:12.159Z,62.1
2018-04-10T06:46:13.960Z,62.7
2018-04-10T06:47:15.669Z,62.4
2018-04-10T06:48:17.384Z,62.1
2018-04-10T06:49:19.086Z,62.4
2018-04-10T06:50:20.852Z,62.2
2018-04-10T06:51:22.599Z,62.4
2018-04-10T06:52:24.329Z,62.2
2018-04-10T06:53:26.065Z,62.1
2018-04-10T06:54:27.777Z,61.6
2018-04-10T06:55:29.449Z,60.7
2018-04-10T06:56:31.222Z,60.3
2018-04-10T06:57:33.087Z,58.8
2018-04-10T06:58:34.909Z,58.6
2018-04-10T06:59:36.726Z,58.7
2018-04-10T07:00:38.514Z,58.2
2018-04-10T07:01:41.111Z,58.5
2018-04-10T07:02:42.909Z,58.2
2018-04-10T07:03:44.650Z,58.3
2018-04-10T07:04:46.391Z,58.1
2018-04-10T07:05:48.309Z,57.4
2018-04-10T07:06:50.204Z,56.0
2018-04-10T07:07:51.883Z,56.8
2018-04-10T07:08:53.681Z,56.9
2018-04-10T07:09:55.437Z,57.0
2018-04-10T07:10:57.275Z,57.2
2018-04-10T07:11:59.222Z,58.5
2018-04-10T07:13:00.945Z,58.3
2018-04-10T07:14:03.559Z,59.8
2018-04-10T07:15:05.106Z,58.5
2018-04-10T07:16:06.787Z,57.3
2018-04-10T07:17:08.560Z,57.1
2018-04-10T07:18:10.355Z,56.3
2018-04-10T07:19:12.155Z,56.5
2018-04-10T07:20:13.959Z,55.0
2018-04-10T07:21:15.725Z,53.8
2018-04-10T07:22:17.369Z,53.7
2018-04-10T07:23:19.097Z,53.9
2018-04-10T07:24:20.834Z,52.4
2018-04-10T07:25:22.685Z,52.0
2018-04-10T07:26:24.430Z,51.9
2018-04-10T07:27:26.257Z,52.4
2018-04-10T07:28:27.951Z,52.6
2018-04-10T07:29:29.761Z,52.1
2018-04-10T07:30:31.768Z,51.8
2018-04-10T07:31:33.612Z,52.2
2018-04-10T07:32:35.365Z,51.7
2018-04-10T07:33:37.213Z,51.7
2018-04-10T07:34:38.942Z,51.0
2018-04-10T07:35:40.777Z,50.2
2018-04-10T07:36:42.524Z,50.8
2018-04-10T07:37:44.267Z,50.5
2018-04-10T07:38:46.028Z,50.3
2018-04-10T07:39:47.884Z,49.2
2018-04-10T07:40:49.528Z,49.0
2018-04-10T07:41:51.179Z,48.8
2018-04-10T07:42:53.001Z,47.0
2018-04-10T07:43:54.798Z,47.2
2018-04-10T07:44:56.841Z,48.3
2018-04-10T07:45:58.772Z,49.4
2018-04-10T07:47:00.963Z,48.3
2018-04-10T07:48:02.843Z,49.1
2018-04-10T07:49:04.648Z,49.3
2018-04-10T07:50:06.512Z,49.1
2018-04-10T07:51:08.346Z,47.3
2018-04-10T07:52:10.924Z,46.4
2018-04-10T07:53:12.723Z,45.9
2018-04-10T07:54:14.601Z,45.9
2018-04-10T07:55:16.588Z,46.8
2018-04-10T07:56:18.596Z,45.2
2018-04-10T07:57:20.493Z,45.9
2018-04-10T07:58:22.439Z,44.9
2018-04-10T07:59:24.413Z,44.9
2018-04-10T08:00:26.253Z,44.3
2018-04-10T08:01:28.225Z,44.6
2018-04-10T08:02:30.095Z,44.1
2018-04-10T08:03:32.238Z,44.5
2018-04-10T08:04:34.024Z,45.0
2018-04-10T08:05:35.852Z,45.1
2018-04-10T08:06:37.696Z,44.5
2018-04-10T08:07:39.476Z,45.9
2018-04-10T08:08:41.342Z,46.1
2018-04-10T08:09:43.170Z,46.4
2018-04-10T08:10:45.024Z,46.1
2018-04-10T08:11:46.971Z,45.8
2018-04-10T08:12:48.936Z,45.9
2018-04-10T08:13:51.417Z,45.9
2018-04-10T08:14:53.195Z,45.0
2018-04-10T08:15:55.346Z,46.7
2018-04-10T08:16:57.219Z,46.2
2018-04-10T08:17:59.023Z,44.3
2018-04-10T08:19:00.807Z,42.6
2018-04-10T08:20:02.574Z,44.1
2018-04-10T08:21:04.359Z,43.9
2018-04-10T08:22:06.191Z,44.4
2018-04-10T08:23:07.995Z,40.9
2018-04-10T08:24:09.716Z,42.1
2018-04-10T08:25:11.450Z,41.2
2018-04-10T08:26:13.404Z,41.1
2018-04-10T08:27:15.385Z,40.9
2018-04-10T08:28:17.269Z,39.5
2018-04-10T08:29:18.954Z,38.7
2018-04-10T08:30:20.856Z,39.6
2018-04-10T08:31:22.865Z,39.0
2018-04-10T08:32:24.546Z,38.6
2018-04-10T08:33:26.360Z,38.2
2018-04-10T08:34:28.161Z,38.2
2018-04-10T08:35:29.908Z,39.0
2018-04-10T08:36:31.611Z,37.9
2018-04-10T08:37:33.400Z,38.8
2018-04-10T08:38:35.140Z,37.7
2018-04-10T08:39:36.999Z,37.8
2018-04-10T08:40:38.813Z,36.7
2018-04-10T08:41:40.806Z,36.5
2018-04-10T08:42:42.544Z,37.5
2018-04-10T08:43:44.475Z,37.5
2018-04-10T08:44:46.380Z,37.8
2018-04-10T08:45:48.905Z,36.4
2018-04-10T08:46:50.579Z,36.2
2018-04-10T08:47:52.514Z,35.5
2018-04-10T08:48:54.316Z,35.7
2018-04-10T08:49:56.217Z,36.3
2018-04-10T08:50:58.077Z,37.6
2018-04-10T08:51:59.833Z,36.5
2018-04-10T08:53:01.714Z,37.1
2018-04-10T08:54:03.561Z,36.7
2018-04-10T08:55:05.322Z,36.6
2018-04-10T08:56:07.267Z,37.6
2018-04-10T08:57:09.281Z,36.6
2018-04-10T08:58:11.950Z,37.6
2018-04-10T08:59:13.749Z,37.7
2018-04-10T09:00:15.642Z,36.8
2018-04-10T09:01:17.699Z,37.7
2018-04-10T09:02:19.440Z,36.2
2018-04-10T09:03:21.375Z,36.9
2018-04-10T09:04:23.075Z,38.6
2018-04-10T09:05:24.947Z,38.8
2018-04-10T09:06:26.955Z,38.8
2018-04-10T09:07:28.699Z,37.9
2018-04-10T09:08:30.568Z,37.8
2018-04-10T09:09:32.501Z,37.6
2018-04-10T09:10:35.824Z,38.0
2018-04-10T09:11:37.669Z,36.5
2018-04-10T09:12:39.454Z,34.3
2018-04-10T09:13:41.273Z,34.6
2018-04-10T09:14:43.036Z,34.0
2018-04-10T09:15:44.906Z,34.2
2018-04-10T09:16:46.784Z,32.8
2018-04-10T09:17:49.015Z,32.6
2018-04-10T09:18:50.831Z,32.8
2018-04-10T09:19:52.792Z,33.4
2018-04-10T09:20:54.624Z,32.6
2018-04-10T09:21:56.454Z,33.5
2018-04-10T09:22:58.465Z,33.2
2018-04-10T09:24:00.249Z,32.8
2018-04-10T09:25:02.111Z,32.9
2018-04-10T09:26:04.083Z,34.2
2018-04-10T09:27:06.025Z,33.6
2018-04-10T09:28:07.946Z,33.3
2018-04-10T09:29:09.997Z,32.0
2018-04-10T09:30:11.673Z,32.3
2018-04-10T09:31:13.529Z,32.1
2018-04-10T09:32:16.037Z,31.6
2018-04-10T09:33:17.833Z,32.7
2018-04-10T09:34:19.790Z,32.1
2018-04-10T09:35:21.732Z,32.6
2018-04-10T09:36:23.632Z,33.8
2018-04-10T09:37:25.632Z,32.0
2018-04-10T09:38:27.616Z,31.5
2018-04-10T09:39:29.532Z,30.8
2018-04-10T09:40:31.434Z,31.8
2018-04-10T09:41:33.425Z,31.3
2018-04-10T09:42:35.273Z,31.1
2018-04-10T09:43:37.082Z,32.2
2018-04-10T09:44:39.880Z,31.9
2018-04-10T09:45:41.654Z,31.5
2018-04-10T09:46:43.625Z,31.2
2018-04-10T09:47:45.544Z,31.7
2018-04-10T09:48:47.535Z,31.8
2018-04-10T09:49:49.675Z,31.4
2018-04-10T09:50:51.494Z,30.5
2018-04-10T09:51:53.506Z,32.0
2018-04-10T09:52:55.943Z,30.0
2018-04-10T09:53:59.006Z,30.6
2018-04-10T09:55:01.561Z,31.0
2018-04-10T09:56:03.472Z,31.9
2018-04-10T09:57:05.360Z,31.4
2018-04-10T09:58:07.312Z,30.2
2018-04-10T09:59:09.517Z,29.3
2018-04-10T10:00:11.522Z,28.9
2018-04-10T10:01:13.325Z,29.3
2018-04-10T10:02:15.177Z,28.4
2018-04-10T10:03:16.863Z,27.8
2018-04-10T10:04:18.718Z,29.7
2018-04-10T10:05:20.383Z,30.3
2018-04-10T10:06:22.187Z,28.9
2018-04-10T10:07:23.974Z,29.2
2018-04-10T10:08:25.738Z,29.3
2018-04-10T10:09:27.559Z,29.9
2018-04-10T10:10:29.356Z,30.4
2018-04-10T10:11:31.070Z,31.7
2018-04-10T10:12:32.854Z,30.5
2018-04-10T10:13:34.713Z,30.0
2018-04-10T10:14:36.735Z,29.9
2018-04-10T10:15:38.549Z,29.1
2018-04-10T10:16:40.598Z,30.4
2018-04-10T10:17:42.511Z,30.2
2018-04-10T10:18:44.423Z,29.7
2018-04-10T10:19:46.336Z,29.0
2018-04-10T10:20:48.235Z,31.5
2018-04-10T10:21:49.938Z,31.3
2018-04-10T10:22:51.734Z,30.2
2018-04-10T10:23:53.773Z,29.6
2018-04-10T10:24:55.755Z,31.1
2018-04-10T10:25:57.854Z,32.4
2018-04-10T10:26:59.654Z,33.6
2018-04-10T10:28:01.676Z,33.1
2018-04-10T10:29:03.583Z,34.5
2018-04-10T10:30:05.490Z,32.9
2018-04-10T10:31:07.452Z,33.3
2018-04-10T10:32:09.407Z,33.8
2018-04-10T10:33:12.107Z,34.1
2018-04-10T10:34:14.202Z,33.7
2018-04-10T10:35:16.621Z,34.1
2018-04-10T10:36:18.567Z,34.1
2018-04-10T10:37:21.509Z,33.8
2018-04-10T10:38:23.619Z,34.7
2018-04-10T10:39:25.571Z,34.0
2018-04-10T10:40:27.442Z,34.3
2018-04-10T10:41:29.386Z,35.0
2018-04-10T10:42:31.258Z,36.1
2018-04-10T10:43:33.181Z,35.7
2018-04-10T10:44:35.177Z,35.4
2018-04-10T10:45:37.235Z,34.6
2018-04-10T10:46:39.158Z,34.3
2018-04-10T10:47:41.119Z,35.7
2018-04-10T10:48:43.049Z,34.8
2018-04-10T10:49:44.840Z,34.7
2018-04-10T10:50:46.709Z,34.4
2018-04-10T10:51:48.608Z,34.5
2018-04-10T10:52:50.391Z,34.0
2018-04-10T10:53:52.258Z,34.5
2018-04-10T10:54:54.210Z,35.5
2018-04-10T10:55:56.340Z,35.1
2018-04-10T10:56:58.128Z,35.5
2018-04-10T10:57:59.975Z,34.1
2018-04-10T10:59:02.947Z,34.6
2018-04-10T11:00:04.880Z,34.2
2018-04-10T11:01:06.861Z,33.5
2018-04-10T11:02:08.813Z,32.5
2018-04-10T11:03:11.398Z,31.8
2018-04-10T11:04:13.260Z,32.8
2018-04-10T11:05:15.047Z,32.2
2018-04-10T11:06:16.910Z,30.9
2018-04-10T11:07:18.558Z,31.9
2018-04-10T11:08:20.264Z,30.8
2018-04-10T11:09:21.945Z,30.6
2018-04-10T11:10:24.304Z,30.7
2018-04-10T11:11:26.156Z,31.6
2018-04-10T11:12:27.929Z,31.7
2018-04-10T11:13:29.760Z,31.5
2018-04-10T11:14:31.607Z,30.0
2018-04-10T11:15:33.343Z,30.7
2018-04-10T11:16:35.101Z,30.1
2018-04-10T11:17:36.934Z,30.5
2018-04-10T11:18:38.840Z,31.3
2018-04-10T11:19:40.660Z,29.2
2018-04-10T11:20:42.448Z,29.2
2018-04-10T11:21:44.280Z,29.2
2018-04-10T11:22:46.000Z,29.8
2018-04-10T11:23:48.158Z,29.3
2018-04-10T11:24:49.850Z,30.1
2018-04-10T11:25:51.637Z,29.1
2018-04-10T11:26:53.368Z,29.5
2018-04-10T11:27:55.062Z,29.7
2018-04-10T11:28:56.806Z,30.9
2018-04-10T11:29:58.704Z,31.5
2018-04-10T11:31:00.593Z,32.2
2018-04-10T11:32:02.546Z,31.3
2018-04-10T11:33:04.256Z,32.6
2018-04-10T11:34:06.161Z,31.6
2018-04-10T11:35:08.138Z,30.3
2018-04-10T11:36:09.922Z,31.4
2018-04-10T11:37:11.707Z,32.6
2018-04-10T11:38:14.239Z,32.2
2018-04-10T11:39:16.106Z,31.1
2018-04-10T11:40:17.955Z,30.7
2018-04-10T11:41:19.742Z,29.8
2018-04-10T11:42:22.097Z,29.6
2018-04-10T11:43:23.855Z,29.9
2018-04-10T11:44:25.585Z,31.2
2018-04-10T11:45:27.759Z,31.4
2018-04-10T11:46:29.519Z,30.7
2018-04-10T11:47:31.248Z,32.7
2018-04-10T11:48:32.949Z,31.5
2018-04-10T11:49:35.401Z,31.2
2018-04-10T11:50:37.106Z,30.6
2018-04-10T11:51:38.867Z,30.4
2018-04-10T11:52:40.593Z,30.4
2018-04-10T11:53:42.965Z,29.7
2018-04-10T11:54:44.764Z,29.6
2018-04-10T11:55:46.456Z,30.1
2018-04-10T11:56:48.208Z,30.1
2018-04-10T11:57:49.929Z,30.6
2018-04-10T11:58:51.687Z,30.7
2018-04-10T11:59:53.389Z,30.5
2018-04-10T12:00:55.179Z,30.0
2018-04-10T12:01:57.091Z,29.2
2018-04-10T12:02:59.030Z,29.0
2018-04-10T12:04:00.844Z,28.0
2018-04-10T12:05:02.579Z,28.3
2018-04-10T12:06:04.473Z,28.9
2018-04-10T12:07:06.243Z,28.5
2018-04-10T12:08:08.047Z,28.9
2018-04-10T12:09:09.813Z,28.9
2018-04-10T12:10:11.599Z,29.0
2018-04-10T12:11:13.361Z,28.0
2018-04-10T12:12:15.221Z,27.4
2018-04-10T12:13:17.040Z,28.4
2018-04-10T12:14:19.070Z,28.6
2018-04-10T12:15:20.916Z,29.1
2018-04-10T12:16:22.684Z,29.7
2018-04-10T12:17:25.467Z,29.4
2018-04-10T12:18:27.243Z,29.0
2018-04-10T12:19:29.277Z,30.7
2018-04-10T12:20:31.185Z,30.2
2018-04-10T12:21:33.016Z,29.2
2018-04-10T12:22:34.867Z,30.3
2018-04-10T12:23:37.798Z,30.9
2018-04-10T12:24:39.521Z,30.7
2018-04-10T12:25:41.400Z,30.0
2018-04-10T12:26:43.233Z,28.8
2018-04-10T12:27:45.047Z,29.0
2018-04-10T12:28:46.948Z,27.1
2018-04-10T12:29:48.791Z,25.7
2018-04-10T12:30:50.646Z,27.6
2018-04-10T12:31:52.546Z,27.6
2018-04-10T12:32:54.533Z,27.7
2018-04-10T12:33:56.666Z,27.4
2018-04-10T12:34:58.533Z,26.9
2018-04-10T12:36:00.735Z,27.0
2018-04-10T12:37:02.681Z,26.7
2018-04-10T12:38:04.597Z,27.2
2018-04-10T12:39:06.534Z,27.4
2018-04-10T12:40:08.517Z,27.3
2018-04-10T12:41:10.426Z,25.9
2018-04-10T12:42:12.266Z,26.0
2018-04-10T12:43:14.229Z,27.3
2018-04-10T12:44:16.024Z,27.9
2018-04-10T12:45:17.844Z,28.1
2018-04-10T12:46:19.644Z,28.0
2018-04-10T12:47:21.654Z,26.7
2018-04-10T12:48:23.361Z,28.4
2018-04-10T12:49:25.149Z,29.2
2018-04-10T12:50:26.961Z,28.3
2018-04-10T12:51:28.952Z,28.2
2018-04-10T12:52:30.835Z,26.6
2018-04-10T12:53:32.693Z,27.6
2018-04-10T12:54:34.610Z,26.8
2018-04-10T12:55:36.440Z,25.6
2018-04-10T12:56:38.277Z,26.0
2018-04-10T12:57:40.317Z,26.4
2018-04-10T12:58:42.172Z,25.8
2018-04-10T12:59:44.007Z,25.5
2018-04-10T13:00:45.939Z,27.8
2018-04-10T13:01:47.910Z,27.4
2018-04-10T13:02:49.749Z,26.2
2018-04-10T13:03:51.781Z,26.3
2018-04-10T13:04:54.157Z,27.1
2018-04-10T13:05:55.992Z,26.1
2018-04-10T13:06:58.267Z,25.7
2018-04-10T13:08:00.028Z,25.9
2018-04-10T13:09:02.007Z,26.1
2018-04-10T13:10:04.033Z,25.2
2018-04-10T13:11:05.942Z,24.8
2018-04-10T13:12:08.105Z,25.6
2018-04-10T13:13:09.761Z,25.5
2018-04-10T13:14:11.687Z,27.1
2018-04-10T13:15:13.356Z,25.2
2018-04-10T13:16:15.346Z,25.0
2018-04-10T13:17:17.442Z,25.6
2018-04-10T13:18:19.328Z,24.8
2018-04-10T13:19:21.250Z,24.6
2018-04-10T13:20:23.046Z,23.8
2018-04-10T13:21:25.106Z,23.8
2018-04-10T13:22:27.341Z,24.6
2018-04-10T13:23:29.165Z,25.0
2018-04-10T13:24:31.053Z,24.4
2018-04-10T13:25:32.954Z,24.7
2018-04-10T13:26:34.796Z,24.8
2018-04-10T13:27:36.821Z,25.1
2018-04-10T13:28:38.654Z,24.8
2018-04-10T13:29:40.359Z,24.2
2018-04-10T13:30:42.207Z,24.1
2018-04-10T13:31:44.100Z,24.6
2018-04-10T13:32:45.923Z,24.9
2018-04-10T13:33:47.800Z,25.6
2018-04-10T13:34:49.684Z,26.0
2018-04-10T13:35:51.449Z,25.1
2018-04-10T13:36:53.374Z,25.8
2018-04-10T13:37:55.163Z,25.8
2018-04-10T13:38:57.168Z,25.5
2018-04-10T13:39:59.067Z,24.9
2018-04-10T13:41:00.923Z,24.6
2018-04-10T13:42:02.739Z,25.4
2018-04-10T13:43:04.736Z,24.8